sensor_id;sensor_type;location;lat;lon;timestamp;temperature;humidity
47174;DHT22;36730;49.036;9.094;2023-05-10T00:02:21;25.10;74.90
47174;DHT22;36730;49.036;9.094;2023-05-10T00:04:47;25.10;75.30
47174;DHT22;36730;49.036;9.094;2023-05-10T00:07:12;25.10;75.10
47174;DHT22;36730;49.036;9.094;2023-05-10T00:09:38;25.00;75.10
47174;DHT22;36730;49.036;9.094;2023-05-10T00:12:03;25.10;75.20
47174;DHT22;36730;49.036;9.094;2023-05-10T00:14:29;25.00;75.00
47174;DHT22;36730;49.036;9.094;2023-05-10T00:16:55;25.00;75.20
47174;DHT22;36730;49.036;9.094;2023-05-10T00:19:20;25.00;75.10
47174;DHT22;36730;49.036;9.094;2023-05-10T00:21:46;25.00;74.80
47174;DHT22;36730;49.036;9.094;2023-05-10T00:24:11;25.00;74.80
47174;DHT22;36730;49.036;9.094;2023-05-10T00:26:37;25.00;74.80
47174;DHT22;36730;49.036;9.094;2023-05-10T00:29:02;25.00;74.70
47174;DHT22;36730;49.036;9.094;2023-05-10T00:31:28;25.00;74.70
47174;DHT22;36730;49.036;9.094;2023-05-10T00:33:53;25.00;74.70
47174;DHT22;36730;49.036;9.094;2023-05-10T00:36:20;24.90;74.50
47174;DHT22;36730;49.036;9.094;2023-05-10T00:38:46;25.00;74.60
47174;DHT22;36730;49.036;9.094;2023-05-10T00:41:11;24.90;74.60
47174;DHT22;36730;49.036;9.094;2023-05-10T00:43:37;24.90;74.40
47174;DHT22;36730;49.036;9.094;2023-05-10T00:46:03;24.90;74.50
47174;DHT22;36730;49.036;9.094;2023-05-10T00:48:28;24.90;74.60
47174;DHT22;36730;49.036;9.094;2023-05-10T00:50:54;24.90;74.30
47174;DHT22;36730;49.036;9.094;2023-05-10T00:53:21;24.90;74.40
47174;DHT22;36730;49.036;9.094;2023-05-10T00:55:46;24.90;74.20
47174;DHT22;36730;49.036;9.094;2023-05-10T00:58:12;24.90;74.30
47174;DHT22;36730;49.036;9.094;2023-05-10T01:00:38;24.90;74.30
47174;DHT22;36730;49.036;9.094;2023-05-10T01:03:06;24.80;74.30
47174;DHT22;36730;49.036;9.094;2023-05-10T01:05:32;24.80;74.20
47174;DHT22;36730;49.036;9.094;2023-05-10T01:07:57;24.80;74.20
47174;DHT22;36730;49.036;9.094;2023-05-10T01:10:23;24.80;74.10
47174;DHT22;36730;49.036;9.094;2023-05-10T01:12:49;24.80;73.90
47174;DHT22;36730;49.036;9.094;2023-05-10T01:15:15;24.80;73.90
47174;DHT22;36730;49.036;9.094;2023-05-10T01:17:42;24.80;74.00
47174;DHT22;36730;49.036;9.094;2023-05-10T01:20:08;24.80;73.90
47174;DHT22;36730;49.036;9.094;2023-05-10T01:25:25;24.80;73.70
47174;DHT22;36730;49.036;9.094;2023-05-10T01:35:39;24.70;73.40
47174;DHT22;36730;49.036;9.094;2023-05-10T01:40:42;24.80;73.30
47174;DHT22;36730;49.036;9.094;2023-05-10T01:43:11;24.80;73.30
47174;DHT22;36730;49.036;9.094;2023-05-10T01:45:47;24.70;73.20
47174;DHT22;36730;49.036;9.094;2023-05-10T01:48:16;24.70;73.10
47174;DHT22;36730;49.036;9.094;2023-05-10T01:50:43;24.70;73.20
47174;DHT22;36730;49.036;9.094;2023-05-10T01:53:11;24.70;73.10
47174;DHT22;36730;49.036;9.094;2023-05-10T01:55:45;24.70;72.70
47174;DHT22;36730;49.036;9.094;2023-05-10T01:58:32;24.70;72.80
47174;DHT22;36730;49.036;9.094;2023-05-10T02:00:59;24.70;72.90
47174;DHT22;36730;49.036;9.094;2023-05-10T02:03:26;24.70;72.90
47174;DHT22;36730;49.036;9.094;2023-05-10T02:05:52;24.60;72.50
47174;DHT22;36730;49.036;9.094;2023-05-10T02:08:18;24.60;72.80
47174;DHT22;36730;49.036;9.094;2023-05-10T02:10:45;24.70;72.90
47174;DHT22;36730;49.036;9.094;2023-05-10T02:13:12;24.60;72.50
47174;DHT22;36730;49.036;9.094;2023-05-10T02:15:38;24.60;72.50
47174;DHT22;36730;49.036;9.094;2023-05-10T02:18:04;24.60;72.50
47174;DHT22;36730;49.036;9.094;2023-05-10T02:20:31;24.60;72.40
47174;DHT22;36730;49.036;9.094;2023-05-10T02:22:57;24.70;72.50
47174;DHT22;36730;49.036;9.094;2023-05-10T02:25:23;24.60;72.20
47174;DHT22;36730;49.036;9.094;2023-05-10T02:27:48;24.60;72.30
47174;DHT22;36730;49.036;9.094;2023-05-10T02:30:14;24.60;72.40
47174;DHT22;36730;49.036;9.094;2023-05-10T02:32:41;24.60;72.30
47174;DHT22;36730;49.036;9.094;2023-05-10T02:35:07;24.60;72.20
47174;DHT22;36730;49.036;9.094;2023-05-10T02:37:33;24.60;72.60
47174;DHT22;36730;49.036;9.094;2023-05-10T02:40:00;24.60;71.90
47174;DHT22;36730;49.036;9.094;2023-05-10T02:42:26;24.60;72.00
47174;DHT22;36730;49.036;9.094;2023-05-10T02:44:53;24.60;72.00
47174;DHT22;36730;49.036;9.094;2023-05-10T02:47:19;24.50;72.00
47174;DHT22;36730;49.036;9.094;2023-05-10T02:49:45;24.60;71.80
47174;DHT22;36730;49.036;9.094;2023-05-10T02:52:10;24.60;71.80
47174;DHT22;36730;49.036;9.094;2023-05-10T02:54:43;24.60;71.80
47174;DHT22;36730;49.036;9.094;2023-05-10T02:57:09;24.60;71.70
47174;DHT22;36730;49.036;9.094;2023-05-10T02:59:36;24.60;71.90
47174;DHT22;36730;49.036;9.094;2023-05-10T03:02:02;24.60;71.80
47174;DHT22;36730;49.036;9.094;2023-05-10T03:04:28;24.50;71.70
47174;DHT22;36730;49.036;9.094;2023-05-10T03:06:53;24.50;71.60
47174;DHT22;36730;49.036;9.094;2023-05-10T03:09:19;24.50;71.50
47174;DHT22;36730;49.036;9.094;2023-05-10T03:17:00;24.50;71.70
47174;DHT22;36730;49.036;9.094;2023-05-10T03:19:35;24.50;71.70
47174;DHT22;36730;49.036;9.094;2023-05-10T03:22:04;24.50;71.70
47174;DHT22;36730;49.036;9.094;2023-05-10T03:24:34;24.50;71.70
47174;DHT22;36730;49.036;9.094;2023-05-10T03:27:00;24.50;71.50
47174;DHT22;36730;49.036;9.094;2023-05-10T03:29:28;24.60;71.60
47174;DHT22;36730;49.036;9.094;2023-05-10T03:31:54;24.60;71.50
47174;DHT22;36730;49.036;9.094;2023-05-10T03:34:23;24.60;71.30
47174;DHT22;36730;49.036;9.094;2023-05-10T03:36:49;24.60;71.10
47174;DHT22;36730;49.036;9.094;2023-05-10T03:39:14;24.60;71.20
47174;DHT22;36730;49.036;9.094;2023-05-10T03:41:40;24.60;71.40
47174;DHT22;36730;49.036;9.094;2023-05-10T03:44:05;24.60;71.30
47174;DHT22;36730;49.036;9.094;2023-05-10T03:46:31;24.60;71.50
47174;DHT22;36730;49.036;9.094;2023-05-10T03:48:56;24.60;71.20
47174;DHT22;36730;49.036;9.094;2023-05-10T03:51:22;24.60;71.90
47174;DHT22;36730;49.036;9.094;2023-05-10T03:53:47;24.60;72.10
47174;DHT22;36730;49.036;9.094;2023-05-10T03:56:13;24.60;71.30
47174;DHT22;36730;49.036;9.094;2023-05-10T03:58:38;24.60;71.30
47174;DHT22;36730;49.036;9.094;2023-05-10T04:01:03;24.60;71.10
47174;DHT22;36730;49.036;9.094;2023-05-10T04:03:29;24.60;71.10
47174;DHT22;36730;49.036;9.094;2023-05-10T04:06:00;24.60;71.20
47174;DHT22;36730;49.036;9.094;2023-05-10T04:08:27;24.70;71.00
47174;DHT22;36730;49.036;9.094;2023-05-10T04:10:52;24.70;71.10
47174;DHT22;36730;49.036;9.094;2023-05-10T04:13:18;24.70;71.10
47174;DHT22;36730;49.036;9.094;2023-05-10T04:15:44;24.70;71.10
47174;DHT22;36730;49.036;9.094;2023-05-10T04:18:09;24.70;71.30
47174;DHT22;36730;49.036;9.094;2023-05-10T04:20:35;24.70;71.40
47174;DHT22;36730;49.036;9.094;2023-05-10T04:23:01;24.70;71.20
47174;DHT22;36730;49.036;9.094;2023-05-10T04:25:26;24.70;71.40
47174;DHT22;36730;49.036;9.094;2023-05-10T04:27:52;24.70;71.50
47174;DHT22;36730;49.036;9.094;2023-05-10T04:30:17;24.80;71.60
47174;DHT22;36730;49.036;9.094;2023-05-10T04:32:43;24.80;71.70
47174;DHT22;36730;49.036;9.094;2023-05-10T04:35:08;24.80;71.60
47174;DHT22;36730;49.036;9.094;2023-05-10T04:37:35;24.80;71.50
47174;DHT22;36730;49.036;9.094;2023-05-10T04:40:02;24.90;71.90
47174;DHT22;36730;49.036;9.094;2023-05-10T04:42:28;24.80;71.30
47174;DHT22;36730;49.036;9.094;2023-05-10T04:44:53;24.90;71.60
47174;DHT22;36730;49.036;9.094;2023-05-10T04:47:19;24.90;72.30
47174;DHT22;36730;49.036;9.094;2023-05-10T04:49:45;24.90;71.90
47174;DHT22;36730;49.036;9.094;2023-05-10T04:52:10;24.90;72.00
47174;DHT22;36730;49.036;9.094;2023-05-10T04:54:36;24.90;71.80
47174;DHT22;36730;49.036;9.094;2023-05-10T04:57:02;24.90;71.80
47174;DHT22;36730;49.036;9.094;2023-05-10T04:59:27;24.90;72.10
47174;DHT22;36730;49.036;9.094;2023-05-10T05:01:53;25.00;72.60
47174;DHT22;36730;49.036;9.094;2023-05-10T05:04:18;25.00;72.70
47174;DHT22;36730;49.036;9.094;2023-05-10T05:06:44;25.00;72.60
47174;DHT22;36730;49.036;9.094;2023-05-10T05:09:09;25.00;71.90
47174;DHT22;36730;49.036;9.094;2023-05-10T05:11:35;25.00;72.40
47174;DHT22;36730;49.036;9.094;2023-05-10T05:14:00;25.00;72.50
47174;DHT22;36730;49.036;9.094;2023-05-10T05:16:26;25.00;72.50
47174;DHT22;36730;49.036;9.094;2023-05-10T05:18:51;25.00;72.40
47174;DHT22;36730;49.036;9.094;2023-05-10T05:21:17;25.00;73.00
47174;DHT22;36730;49.036;9.094;2023-05-10T05:23:43;25.10;72.80
47174;DHT22;36730;49.036;9.094;2023-05-10T05:26:09;25.10;72.70
47174;DHT22;36730;49.036;9.094;2023-05-10T05:28:34;25.10;72.30
47174;DHT22;36730;49.036;9.094;2023-05-10T05:31:04;25.10;72.30
47174;DHT22;36730;49.036;9.094;2023-05-10T05:33:30;25.10;72.50
47174;DHT22;36730;49.036;9.094;2023-05-10T05:35:56;25.20;73.00
47174;DHT22;36730;49.036;9.094;2023-05-10T05:38:21;25.10;72.80
47174;DHT22;36730;49.036;9.094;2023-05-10T05:40:47;25.20;73.90
47174;DHT22;36730;49.036;9.094;2023-05-10T05:43:13;25.20;74.00
47174;DHT22;36730;49.036;9.094;2023-05-10T05:45:38;25.20;73.70
47174;DHT22;36730;49.036;9.094;2023-05-10T05:48:04;25.20;76.50
47174;DHT22;36730;49.036;9.094;2023-05-10T05:50:29;25.20;77.80
47174;DHT22;36730;49.036;9.094;2023-05-10T05:52:55;25.10;73.70
47174;DHT22;36730;49.036;9.094;2023-05-10T05:55:21;25.00;72.20
47174;DHT22;36730;49.036;9.094;2023-05-10T05:57:47;24.90;71.50
47174;DHT22;36730;49.036;9.094;2023-05-10T06:00:12;24.90;71.50
47174;DHT22;36730;49.036;9.094;2023-05-10T06:02:38;24.90;71.30
47174;DHT22;36730;49.036;9.094;2023-05-10T06:05:03;24.80;71.10
47174;DHT22;36730;49.036;9.094;2023-05-10T06:07:29;24.90;71.20
47174;DHT22;36730;49.036;9.094;2023-05-10T06:09:55;24.80;70.00
47174;DHT22;36730;49.036;9.094;2023-05-10T06:12:20;24.90;71.90
47174;DHT22;36730;49.036;9.094;2023-05-10T06:14:45;24.90;71.00
47174;DHT22;36730;49.036;9.094;2023-05-10T06:17:11;24.90;71.50
47174;DHT22;36730;49.036;9.094;2023-05-10T06:19:36;25.00;71.30
47174;DHT22;36730;49.036;9.094;2023-05-10T06:22:02;25.00;70.90
47174;DHT22;36730;49.036;9.094;2023-05-10T06:24:27;25.10;71.00
47174;DHT22;36730;49.036;9.094;2023-05-10T06:26:53;25.10;71.20
47174;DHT22;36730;49.036;9.094;2023-05-10T06:29:18;25.10;71.20
47174;DHT22;36730;49.036;9.094;2023-05-10T06:31:44;25.10;71.00
47174;DHT22;36730;49.036;9.094;2023-05-10T06:34:09;25.10;71.00
47174;DHT22;36730;49.036;9.094;2023-05-10T06:36:36;25.10;70.90
47174;DHT22;36730;49.036;9.094;2023-05-10T06:39:02;25.20;70.80
47174;DHT22;36730;49.036;9.094;2023-05-10T06:41:27;25.20;71.00
47174;DHT22;36730;49.036;9.094;2023-05-10T06:43:53;25.20;70.90
47174;DHT22;36730;49.036;9.094;2023-05-10T06:46:18;25.20;70.80
47174;DHT22;36730;49.036;9.094;2023-05-10T06:48:44;25.20;71.10
47174;DHT22;36730;49.036;9.094;2023-05-10T06:51:09;25.20;71.30
47174;DHT22;36730;49.036;9.094;2023-05-10T06:53:35;25.20;71.00
47174;DHT22;36730;49.036;9.094;2023-05-10T06:56:00;25.20;71.40
47174;DHT22;36730;49.036;9.094;2023-05-10T06:58:26;25.20;71.10
47174;DHT22;36730;49.036;9.094;2023-05-10T07:00:53;25.30;71.50
47174;DHT22;36730;49.036;9.094;2023-05-10T07:03:18;25.30;71.50
47174;DHT22;36730;49.036;9.094;2023-05-10T07:05:44;25.30;71.40
47174;DHT22;36730;49.036;9.094;2023-05-10T07:08:09;25.30;71.00
47174;DHT22;36730;49.036;9.094;2023-05-10T07:10:35;25.30;71.10
47174;DHT22;36730;49.036;9.094;2023-05-10T07:13:01;25.30;71.50
47174;DHT22;36730;49.036;9.094;2023-05-10T07:15:26;25.30;71.40
47174;DHT22;36730;49.036;9.094;2023-05-10T07:17:52;25.30;71.30
47174;DHT22;36730;49.036;9.094;2023-05-10T07:20:18;25.30;71.20
47174;DHT22;36730;49.036;9.094;2023-05-10T07:22:43;25.40;71.50
47174;DHT22;36730;49.036;9.094;2023-05-10T07:25:09;25.40;71.40
47174;DHT22;36730;49.036;9.094;2023-05-10T07:27:35;25.40;71.30
47174;DHT22;36730;49.036;9.094;2023-05-10T07:30:00;25.40;71.40
47174;DHT22;36730;49.036;9.094;2023-05-10T07:32:26;25.50;71.50
47174;DHT22;36730;49.036;9.094;2023-05-10T07:34:52;25.50;71.30
47174;DHT22;36730;49.036;9.094;2023-05-10T07:37:17;25.50;71.10
47174;DHT22;36730;49.036;9.094;2023-05-10T07:39:43;25.50;71.30
47174;DHT22;36730;49.036;9.094;2023-05-10T07:42:09;25.50;71.40
47174;DHT22;36730;49.036;9.094;2023-05-10T07:44:34;25.60;71.30
47174;DHT22;36730;49.036;9.094;2023-05-10T07:47:00;25.60;71.20
47174;DHT22;36730;49.036;9.094;2023-05-10T07:49:25;25.60;71.20
47174;DHT22;36730;49.036;9.094;2023-05-10T07:51:51;25.60;71.00
47174;DHT22;36730;49.036;9.094;2023-05-10T07:54:16;25.70;70.80
47174;DHT22;36730;49.036;9.094;2023-05-10T07:56:42;25.70;70.50
47174;DHT22;36730;49.036;9.094;2023-05-10T07:59:15;25.70;70.70
47174;DHT22;36730;49.036;9.094;2023-05-10T08:01:41;25.80;70.80
47174;DHT22;36730;49.036;9.094;2023-05-10T08:04:07;25.80;70.70
47174;DHT22;36730;49.036;9.094;2023-05-10T08:06:32;25.80;70.40
47174;DHT22;36730;49.036;9.094;2023-05-10T08:08:58;25.80;70.30
47174;DHT22;36730;49.036;9.094;2023-05-10T08:11:23;25.80;70.30
47174;DHT22;36730;49.036;9.094;2023-05-10T08:13:49;25.80;70.40
47174;DHT22;36730;49.036;9.094;2023-05-10T08:16:16;25.90;70.30
47174;DHT22;36730;49.036;9.094;2023-05-10T08:18:42;25.90;70.10
47174;DHT22;36730;49.036;9.094;2023-05-10T08:21:08;25.90;70.10
47174;DHT22;36730;49.036;9.094;2023-05-10T08:23:34;25.90;70.00
47174;DHT22;36730;49.036;9.094;2023-05-10T08:25:59;25.90;70.30
47174;DHT22;36730;49.036;9.094;2023-05-10T08:28:25;25.90;70.30
47174;DHT22;36730;49.036;9.094;2023-05-10T08:30:50;26.00;70.40
47174;DHT22;36730;49.036;9.094;2023-05-10T08:33:17;26.00;70.60
47174;DHT22;36730;49.036;9.094;2023-05-10T08:35:42;26.00;70.50
47174;DHT22;36730;49.036;9.094;2023-05-10T08:38:08;26.00;70.60
47174;DHT22;36730;49.036;9.094;2023-05-10T08:40:33;26.10;70.30
47174;DHT22;36730;49.036;9.094;2023-05-10T08:43:08;26.00;70.40
47174;DHT22;36730;49.036;9.094;2023-05-10T08:45:41;26.00;70.70
47174;DHT22;36730;49.036;9.094;2023-05-10T08:48:08;26.00;70.40
47174;DHT22;36730;49.036;9.094;2023-05-10T08:50:35;26.00;70.30
47174;DHT22;36730;49.036;9.094;2023-05-10T08:53:01;26.00;70.40
47174;DHT22;36730;49.036;9.094;2023-05-10T08:55:28;26.00;70.40
47174;DHT22;36730;49.036;9.094;2023-05-10T08:57:55;26.00;69.60
47174;DHT22;36730;49.036;9.094;2023-05-10T09:00:20;26.00;70.00
47174;DHT22;36730;49.036;9.094;2023-05-10T09:02:48;26.00;69.20
47174;DHT22;36730;49.036;9.094;2023-05-10T09:05:14;26.00;69.50
47174;DHT22;36730;49.036;9.094;2023-05-10T09:07:41;26.00;69.10
47174;DHT22;36730;49.036;9.094;2023-05-10T09:10:07;26.00;69.30
47174;DHT22;36730;49.036;9.094;2023-05-10T09:12:33;26.00;69.80
47174;DHT22;36730;49.036;9.094;2023-05-10T09:14:59;26.00;69.60
47174;DHT22;36730;49.036;9.094;2023-05-10T09:17:25;26.10;69.50
47174;DHT22;36730;49.036;9.094;2023-05-10T09:20:01;26.10;69.20
47174;DHT22;36730;49.036;9.094;2023-05-10T09:22:27;26.10;69.20
47174;DHT22;36730;49.036;9.094;2023-05-10T09:25:09;26.10;69.20
47174;DHT22;36730;49.036;9.094;2023-05-10T09:27:36;26.10;69.20
47174;DHT22;36730;49.036;9.094;2023-05-10T09:30:02;26.10;68.90
47174;DHT22;36730;49.036;9.094;2023-05-10T09:35:13;26.10;68.50
47174;DHT22;36730;49.036;9.094;2023-05-10T09:37:39;26.10;69.00
47174;DHT22;36730;49.036;9.094;2023-05-10T09:40:07;26.10;68.90
47174;DHT22;36730;49.036;9.094;2023-05-10T09:42:33;26.10;68.90
47174;DHT22;36730;49.036;9.094;2023-05-10T09:45:04;26.10;68.30
47174;DHT22;36730;49.036;9.094;2023-05-10T09:47:34;26.20;68.10
47174;DHT22;36730;49.036;9.094;2023-05-10T09:50:00;26.20;68.10
47174;DHT22;36730;49.036;9.094;2023-05-10T09:52:48;26.20;67.80
47174;DHT22;36730;49.036;9.094;2023-05-10T09:55:14;26.20;67.20
47174;DHT22;36730;49.036;9.094;2023-05-10T09:57:40;26.20;66.80
47174;DHT22;36730;49.036;9.094;2023-05-10T10:00:06;26.20;67.00
47174;DHT22;36730;49.036;9.094;2023-05-10T10:02:32;26.30;67.20
47174;DHT22;36730;49.036;9.094;2023-05-10T10:04:57;26.20;67.40
47174;DHT22;36730;49.036;9.094;2023-05-10T10:07:23;26.20;67.10
47174;DHT22;36730;49.036;9.094;2023-05-10T10:09:50;26.20;67.20
47174;DHT22;36730;49.036;9.094;2023-05-10T10:12:16;26.20;66.30
47174;DHT22;36730;49.036;9.094;2023-05-10T10:14:42;26.20;66.60
47174;DHT22;36730;49.036;9.094;2023-05-10T10:17:07;26.10;66.20
47174;DHT22;36730;49.036;9.094;2023-05-10T10:19:34;26.10;66.30
47174;DHT22;36730;49.036;9.094;2023-05-10T10:22:02;26.10;66.40
47174;DHT22;36730;49.036;9.094;2023-05-10T10:24:28;26.00;66.80
47174;DHT22;36730;49.036;9.094;2023-05-10T10:26:54;26.00;66.80
47174;DHT22;36730;49.036;9.094;2023-05-10T10:29:23;26.00;66.80
47174;DHT22;36730;49.036;9.094;2023-05-10T10:34:33;26.00;66.00
47174;DHT22;36730;49.036;9.094;2023-05-10T10:37:04;26.00;66.00
47174;DHT22;36730;49.036;9.094;2023-05-10T10:39:29;26.00;65.60
47174;DHT22;36730;49.036;9.094;2023-05-10T10:41:56;26.00;66.10
47174;DHT22;36730;49.036;9.094;2023-05-10T10:49:25;25.90;65.50
47174;DHT22;36730;49.036;9.094;2023-05-10T10:54:35;26.00;65.80
47174;DHT22;36730;49.036;9.094;2023-05-10T10:57:09;25.90;65.80
47174;DHT22;36730;49.036;9.094;2023-05-10T10:59:35;25.90;65.10
47174;DHT22;36730;49.036;9.094;2023-05-10T11:02:01;25.90;64.70
47174;DHT22;36730;49.036;9.094;2023-05-10T11:04:27;25.90;65.10
47174;DHT22;36730;49.036;9.094;2023-05-10T11:06:53;26.00;65.30
47174;DHT22;36730;49.036;9.094;2023-05-10T11:09:39;25.90;64.80
47174;DHT22;36730;49.036;9.094;2023-05-10T11:12:07;26.00;64.70
47174;DHT22;36730;49.036;9.094;2023-05-10T11:14:33;25.90;64.50
47174;DHT22;36730;49.036;9.094;2023-05-10T11:16:58;25.90;64.60
47174;DHT22;36730;49.036;9.094;2023-05-10T11:19:27;25.90;64.40
47174;DHT22;36730;49.036;9.094;2023-05-10T11:24:30;25.90;63.70
47174;DHT22;36730;49.036;9.094;2023-05-10T11:26:55;25.90;64.00
47174;DHT22;36730;49.036;9.094;2023-05-10T11:29:21;25.90;63.30
47174;DHT22;36730;49.036;9.094;2023-05-10T11:31:47;25.80;63.50
47174;DHT22;36730;49.036;9.094;2023-05-10T11:34:33;25.90;63.70
47174;DHT22;36730;49.036;9.094;2023-05-10T11:37:01;25.90;64.00
47174;DHT22;36730;49.036;9.094;2023-05-10T11:39:27;25.90;63.70
47174;DHT22;36730;49.036;9.094;2023-05-10T11:41:53;25.80;62.70
47174;DHT22;36730;49.036;9.094;2023-05-10T11:44:19;25.80;62.50
47174;DHT22;36730;49.036;9.094;2023-05-10T11:46:44;25.80;61.90
47174;DHT22;36730;49.036;9.094;2023-05-10T11:49:10;25.70;61.60
47174;DHT22;36730;49.036;9.094;2023-05-10T11:51:36;25.70;60.60
47174;DHT22;36730;49.036;9.094;2023-05-10T11:54:04;25.60;61.90
47174;DHT22;36730;49.036;9.094;2023-05-10T11:56:30;25.60;61.00
47174;DHT22;36730;49.036;9.094;2023-05-10T11:58:57;25.60;60.90
47174;DHT22;36730;49.036;9.094;2023-05-10T12:01:26;25.60;60.00
47174;DHT22;36730;49.036;9.094;2023-05-10T12:03:52;25.50;60.30
47174;DHT22;36730;49.036;9.094;2023-05-10T12:06:18;25.50;61.00
47174;DHT22;36730;49.036;9.094;2023-05-10T12:08:45;25.50;60.70
47174;DHT22;36730;49.036;9.094;2023-05-10T12:11:11;25.40;60.40
47174;DHT22;36730;49.036;9.094;2023-05-10T12:13:38;25.40;60.40
47174;DHT22;36730;49.036;9.094;2023-05-10T12:18:40;25.40;60.70
47174;DHT22;36730;49.036;9.094;2023-05-10T12:21:05;25.40;60.10
47174;DHT22;36730;49.036;9.094;2023-05-10T12:23:31;25.40;60.00
47174;DHT22;36730;49.036;9.094;2023-05-10T12:26:01;25.40;60.10
47174;DHT22;36730;49.036;9.094;2023-05-10T12:28:29;25.40;59.70
47174;DHT22;36730;49.036;9.094;2023-05-10T12:30:55;25.40;60.00
47174;DHT22;36730;49.036;9.094;2023-05-10T12:33:20;25.30;59.10
47174;DHT22;36730;49.036;9.094;2023-05-10T12:35:50;25.30;58.40
47174;DHT22;36730;49.036;9.094;2023-05-10T12:38:25;25.20;58.70
47174;DHT22;36730;49.036;9.094;2023-05-10T12:40:51;25.30;58.40
47174;DHT22;36730;49.036;9.094;2023-05-10T12:43:16;25.30;58.10
47174;DHT22;36730;49.036;9.094;2023-05-10T12:45:42;25.30;57.60
47174;DHT22;36730;49.036;9.094;2023-05-10T12:48:07;25.30;56.90
47174;DHT22;36730;49.036;9.094;2023-05-10T12:50:33;25.30;57.00
47174;DHT22;36730;49.036;9.094;2023-05-10T12:52:58;25.30;57.60
47174;DHT22;36730;49.036;9.094;2023-05-10T12:55:24;25.30;58.00
47174;DHT22;36730;49.036;9.094;2023-05-10T12:57:49;25.20;57.40
47174;DHT22;36730;49.036;9.094;2023-05-10T13:00:15;25.30;58.10
47174;DHT22;36730;49.036;9.094;2023-05-10T13:02:40;25.20;58.10
47174;DHT22;36730;49.036;9.094;2023-05-10T13:05:06;25.20;58.90
47174;DHT22;36730;49.036;9.094;2023-05-10T13:07:31;25.30;58.90
47174;DHT22;36730;49.036;9.094;2023-05-10T13:09:57;25.40;58.70
47174;DHT22;36730;49.036;9.094;2023-05-10T13:12:22;25.40;58.70
47174;DHT22;36730;49.036;9.094;2023-05-10T13:14:48;25.50;58.70
47174;DHT22;36730;49.036;9.094;2023-05-10T13:17:13;25.50;58.50
47174;DHT22;36730;49.036;9.094;2023-05-10T13:19:39;25.60;58.80
47174;DHT22;36730;49.036;9.094;2023-05-10T13:22:04;25.60;60.00
47174;DHT22;36730;49.036;9.094;2023-05-10T13:24:30;25.70;58.90
47174;DHT22;36730;49.036;9.094;2023-05-10T13:26:55;25.70;58.80
47174;DHT22;36730;49.036;9.094;2023-05-10T13:29:21;25.70;58.80
47174;DHT22;36730;49.036;9.094;2023-05-10T13:31:47;25.70;58.70
47174;DHT22;36730;49.036;9.094;2023-05-10T13:34:13;25.80;58.80
47174;DHT22;36730;49.036;9.094;2023-05-10T13:36:38;25.80;58.60
47174;DHT22;36730;49.036;9.094;2023-05-10T13:39:04;25.80;58.60
47174;DHT22;36730;49.036;9.094;2023-05-10T13:41:30;25.80;58.90
47174;DHT22;36730;49.036;9.094;2023-05-10T13:43:56;25.90;58.70
47174;DHT22;36730;49.036;9.094;2023-05-10T13:46:21;25.90;58.30
47174;DHT22;36730;49.036;9.094;2023-05-10T13:48:47;25.90;58.30
47174;DHT22;36730;49.036;9.094;2023-05-10T13:51:12;25.90;58.40
47174;DHT22;36730;49.036;9.094;2023-05-10T13:53:38;25.90;58.30
47174;DHT22;36730;49.036;9.094;2023-05-10T13:56:03;25.90;58.20
47174;DHT22;36730;49.036;9.094;2023-05-10T13:58:28;26.00;57.90
47174;DHT22;36730;49.036;9.094;2023-05-10T14:00:55;25.90;57.90
47174;DHT22;36730;49.036;9.094;2023-05-10T14:03:21;26.00;57.60
47174;DHT22;36730;49.036;9.094;2023-05-10T14:05:46;26.00;58.10
47174;DHT22;36730;49.036;9.094;2023-05-10T14:08:12;26.10;58.10
47174;DHT22;36730;49.036;9.094;2023-05-10T14:10:38;26.10;57.60
47174;DHT22;36730;49.036;9.094;2023-05-10T14:13:04;26.10;57.50
47174;DHT22;36730;49.036;9.094;2023-05-10T14:15:30;26.20;57.50
47174;DHT22;36730;49.036;9.094;2023-05-10T14:17:55;26.20;57.50
47174;DHT22;36730;49.036;9.094;2023-05-10T14:20:21;26.20;57.40
47174;DHT22;36730;49.036;9.094;2023-05-10T14:22:46;26.20;57.20
47174;DHT22;36730;49.036;9.094;2023-05-10T14:25:12;26.20;57.10
47174;DHT22;36730;49.036;9.094;2023-05-10T14:27:37;26.20;57.10
47174;DHT22;36730;49.036;9.094;2023-05-10T14:30:03;26.20;56.90
47174;DHT22;36730;49.036;9.094;2023-05-10T14:32:29;26.20;57.10
47174;DHT22;36730;49.036;9.094;2023-05-10T14:34:54;26.20;57.00
47174;DHT22;36730;49.036;9.094;2023-05-10T14:37:20;26.20;56.90
47174;DHT22;36730;49.036;9.094;2023-05-10T14:39:46;26.30;57.00
47174;DHT22;36730;49.036;9.094;2023-05-10T14:42:11;26.20;56.80
47174;DHT22;36730;49.036;9.094;2023-05-10T14:44:37;26.30;57.20
47174;DHT22;36730;49.036;9.094;2023-05-10T14:47:03;26.30;57.20
47174;DHT22;36730;49.036;9.094;2023-05-10T14:49:28;26.30;57.20
47174;DHT22;36730;49.036;9.094;2023-05-10T14:51:54;26.20;57.10
47174;DHT22;36730;49.036;9.094;2023-05-10T14:54:19;26.20;56.80
47174;DHT22;36730;49.036;9.094;2023-05-10T14:56:45;26.20;56.90
47174;DHT22;36730;49.036;9.094;2023-05-10T14:59:11;26.20;56.80
47174;DHT22;36730;49.036;9.094;2023-05-10T15:01:36;26.20;56.00
47174;DHT22;36730;49.036;9.094;2023-05-10T15:04:03;26.20;55.90
47174;DHT22;36730;49.036;9.094;2023-05-10T15:06:32;26.20;56.30
47174;DHT22;36730;49.036;9.094;2023-05-10T15:08:57;26.20;56.10
47174;DHT22;36730;49.036;9.094;2023-05-10T15:11:23;26.20;56.30
47174;DHT22;36730;49.036;9.094;2023-05-10T15:13:49;26.20;56.30
47174;DHT22;36730;49.036;9.094;2023-05-10T15:16:14;26.20;55.90
47174;DHT22;36730;49.036;9.094;2023-05-10T15:18:40;26.20;55.30
47174;DHT22;36730;49.036;9.094;2023-05-10T15:21:06;26.20;55.50
47174;DHT22;36730;49.036;9.094;2023-05-10T15:23:31;26.30;55.50
47174;DHT22;36730;49.036;9.094;2023-05-10T15:25:57;26.20;54.90
47174;DHT22;36730;49.036;9.094;2023-05-10T15:28:22;26.20;55.10
47174;DHT22;36730;49.036;9.094;2023-05-10T15:30:48;26.20;54.10
47174;DHT22;36730;49.036;9.094;2023-05-10T15:33:14;26.20;54.30
47174;DHT22;36730;49.036;9.094;2023-05-10T15:35:39;26.20;54.70
47174;DHT22;36730;49.036;9.094;2023-05-10T15:38:05;26.20;54.60
47174;DHT22;36730;49.036;9.094;2023-05-10T15:40:31;26.20;54.60
47174;DHT22;36730;49.036;9.094;2023-05-10T15:42:56;26.30;54.60
47174;DHT22;36730;49.036;9.094;2023-05-10T15:45:22;26.20;54.70
47174;DHT22;36730;49.036;9.094;2023-05-10T15:47:47;26.30;54.30
47174;DHT22;36730;49.036;9.094;2023-05-10T15:50:14;26.30;54.30
47174;DHT22;36730;49.036;9.094;2023-05-10T15:52:39;26.30;54.20
47174;DHT22;36730;49.036;9.094;2023-05-10T15:55:05;26.20;54.00
47174;DHT22;36730;49.036;9.094;2023-05-10T15:57:37;26.30;53.90
47174;DHT22;36730;49.036;9.094;2023-05-10T16:00:03;26.30;53.50
47174;DHT22;36730;49.036;9.094;2023-05-10T16:02:29;26.30;53.90